Time;durP1;ratioP1;P1;durP2;ratioP2;P2;SDS_P1;SDS_P2;PMS_P1;PMS_P2;Temp;Humidity;BMP_temperature;BMP_pressure;BME280_temperature;BME280_humidity;BME280_pressure;Samples;Min_cycle;Max_cycle;Signal;HPM_P1;HPM_P2
2023/08/05 00:02:24;;;;;;;0.15;0.15;;;;;;;16.31;100.00;98975.41;4836701;29;20095;-95
2023/08/05 00:04:53;;;;;;;0.22;0.20;;;;;;;16.40;100.00;98996.81;4829084;29;20053;-94
2023/08/05 00:07:19;;;;;;;0.70;0.30;;;;;;;16.34;100.00;98982.78;4824162;29;20049;-94
2023/08/05 00:09:45;;;;;;;0.10;0.10;;;;;;;16.36;100.00;98987.88;4826525;29;20037;-93
2023/08/05 00:12:10;;;;;;;0.63;0.40;;;;;;;16.36;100.00;98983.06;4828149;29;20455;-95
2023/08/05 00:14:36;;;;;;;0.40;0.40;;;;;;;16.35;100.00;98970.31;4826225;29;20124;-94
2023/08/05 00:17:04;;;;;;;7.55;0.43;;;;;;;16.38;100.00;98969.31;4841925;29;20045;-93
2023/08/05 00:19:32;;;;;;;0.47;0.47;;;;;;;16.40;100.00;98949.22;4827875;29;20072;-93
2023/08/05 00:21:58;;;;;;;0.40;0.40;;;;;;;16.35;100.00;98947.94;4813307;29;20046;-95
2023/08/05 00:24:26;;;;;;;0.63;0.63;;;;;;;16.37;100.00;98951.00;4828546;29;20057;-95
2023/08/05 00:26:54;;;;;;;0.45;0.35;;;;;;;16.36;100.00;98926.31;4828414;29;20041;-94
2023/08/05 00:29:20;;;;;;;0.47;0.47;;;;;;;16.33;100.00;98922.50;4827017;29;20080;-95
2023/08/05 00:31:45;;;;;;;0.38;0.38;;;;;;;16.33;100.00;98916.91;4813407;29;20490;-93
2023/08/05 00:34:11;;;;;;;0.40;0.40;;;;;;;16.35;100.00;98936.75;4827644;29;20057;-95
2023/08/05 00:36:37;;;;;;;0.45;0.45;;;;;;;16.22;100.00;98916.84;4817828;29;20046;-95
2023/08/05 00:39:03;;;;;;;0.95;0.85;;;;;;;16.24;100.00;98898.31;4809929;29;20046;-95
2023/08/05 00:41:29;;;;;;;0.00;0.00;;;;;;;16.33;100.00;98939.28;4828991;29;20093;-94
2023/08/05 00:43:58;;;;;;;0.22;0.20;;;;;;;16.14;100.00;98919.34;4828489;29;20072;-95
2023/08/05 00:46:28;;;;;;;2.10;1.25;;;;;;;16.31;100.00;98948.19;4813721;29;20045;-95
2023/08/05 00:48:53;;;;;;;1.08;0.65;;;;;;;16.20;100.00;98936.19;4829601;29;20169;-95
2023/08/05 00:51:20;;;;;;;0.15;0.08;;;;;;;16.35;100.00;98953.53;4829216;29;20037;-96
2023/08/05 00:53:49;;;;;;;0.22;0.22;;;;;;;16.31;100.00;98948.19;4828282;29;20046;-95
2023/08/05 00:56:15;;;;;;;0.20;0.20;;;;;;;16.27;100.00;98936.47;4822506;29;20052;-96
2023/08/05 00:58:42;;;;;;;0.20;0.20;;;;;;;16.36;100.00;98927.09;4843737;29;20056;-95
2023/08/05 01:03:43;;;;;;;0.55;0.40;;;;;;;16.28;100.00;98884.06;4950315;23;20062;-93
2023/08/05 01:06:09;;;;;;;0.43;0.43;;;;;;;16.34;100.00;98882.03;4799605;29;20053;-95
2023/08/05 01:08:35;;;;;;;0.20;0.20;;;;;;;16.25;100.00;98873.88;4806782;29;20069;-94
2023/08/05 01:11:02;;;;;;;0.40;0.40;;;;;;;16.35;100.00;98950.75;4806509;29;20136;-94
2023/08/05 01:13:30;;;;;;;0.90;0.17;;;;;;;16.31;100.00;99065.72;4807871;29;20144;-94
2023/08/05 01:15:56;;;;;;;0.00;0.00;;;;;;;16.46;100.00;99171.16;4802079;29;20133;-95
2023/08/05 01:18:24;;;;;;;0.52;0.52;;;;;;;16.43;100.00;99105.72;4804442;29;20052;-94
2023/08/05 01:20:52;;;;;;;0.88;0.77;;;;;;;16.10;100.00;98940.44;4793032;29;20094;-95
2023/08/05 01:23:59;;;;;;;1.50;1.40;;;;;;;16.23;100.00;98935.94;4792567;29;20046;-94
2023/08/05 01:26:25;;;;;;;0.63;0.20;;;;;;;16.36;100.00;98959.91;4803065;29;20046;-95
2023/08/05 01:28:51;;;;;;;0.77;0.75;;;;;;;15.97;100.00;98903.78;4791367;29;20437;-95
2023/08/05 01:31:17;;;;;;;0.25;0.25;;;;;;;15.99;100.00;98940.38;4804606;29;20042;-94
2023/08/05 01:33:43;;;;;;;0.47;0.47;;;;;;;16.31;100.00;98975.41;4801134;29;20042;-95
2023/08/05 01:36:18;;;;;;;0.32;0.32;;;;;;;16.18;100.00;98930.31;4806945;29;20200;-95
2023/08/05 01:38:44;;;;;;;0.70;0.63;;;;;;;16.26;100.00;98892.94;4806313;29;20130;-94
2023/08/05 01:41:10;;;;;;;0.35;0.35;;;;;;;16.08;100.00;98833.91;4805962;29;20053;-95
2023/08/05 01:43:36;;;;;;;0.13;0.13;;;;;;;16.22;100.00;98850.47;4807751;29;20046;-95
2023/08/05 01:46:01;;;;;;;0.60;0.60;;;;;;;16.13;100.00;98841.53;4806729;29;20357;-95
2023/08/05 01:48:27;;;;;;;0.88;0.50;;;;;;;15.83;100.00;98813.97;4808201;29;20088;-94
2023/08/05 01:50:53;;;;;;;0.28;0.28;;;;;;;15.93;100.00;98819.34;4806444;29;20047;-94
2023/08/05 01:53:18;;;;;;;0.43;0.43;;;;;;;16.15;100.00;98850.19;4806077;29;20034;-94
2023/08/05 01:55:44;;;;;;;0.45;0.45;;;;;;;16.15;100.00;98878.94;4790163;29;20050;-95
2023/08/05 01:58:10;;;;;;;0.17;0.15;;;;;;;16.09;100.00;98866.19;4812753;29;20046;-94
2023/08/05 02:00:35;;;;;;;0.82;0.82;;;;;;;16.18;100.00;98877.16;4800495;29;20042;-95
2023/08/05 02:03:01;;;;;;;0.38;0.38;;;;;;;16.11;100.00;98866.44;4796332;29;20049;-94
2023/08/05 02:05:27;;;;;;;0.28;0.28;;;;;;;16.17;100.00;98870.03;4796064;29;20075;-94
2023/08/05 02:07:53;;;;;;;0.20;0.20;;;;;;;15.88;100.00;98811.69;4810803;29;20129;-95
2023/08/05 02:10:19;;;;;;;0.28;0.28;;;;;;;15.82;100.00;98797.69;4796305;29;20045;-95
2023/08/05 02:12:44;;;;;;;0.03;0.03;;;;;;;15.85;100.00;98789.06;4808954;29;20130;-95
2023/08/05 02:15:10;;;;;;;0.25;0.25;;;;;;;16.23;100.00;98845.63;4807491;29;20046;-94
2023/08/05 02:17:36;;;;;;;1.20;0.52;;;;;;;16.09;100.00;98813.06;4810963;29;20045;-90
2023/08/05 02:20:04;;;;;;;0.32;0.32;;;;;;;16.16;100.00;98804.16;4806608;29;20183;-90
2023/08/05 02:22:29;;;;;;;0.55;0.55;;;;;;;16.21;100.00;98807.00;4800544;29;20126;-89
2023/08/05 02:24:57;;;;;;;0.45;0.45;;;;;;;16.23;100.00;98817.66;4809309;29;20056;-89
2023/08/05 02:27:23;;;;;;;0.30;0.30;;;;;;;16.22;100.00;98816.88;4797066;29;20073;-90
2023/08/05 02:29:48;;;;;;;0.20;0.20;;;;;;;16.24;100.00;98810.78;4810983;29;20743;-90
2023/08/05 02:32:16;;;;;;;0.03;0.03;;;;;;;16.23;100.00;98809.25;4809965;29;20096;-90
2023/08/05 02:34:41;;;;;;;0.50;0.38;;;;;;;16.28;100.00;98808.50;4809585;29;20499;-90
2023/08/05 02:37:07;;;;;;;0.05;0.05;;;;;;;16.22;100.00;98810.53;4808246;29;20053;-90
2023/08/05 02:39:34;;;;;;;0.50;0.38;;;;;;;16.23;100.00;98817.66;4809928;29;20033;-89
2023/08/05 02:41:59;;;;;;;0.38;0.38;;;;;;;15.99;100.00;98792.16;4809594;29;20049;-91
2023/08/05 02:44:25;;;;;;;0.57;0.57;;;;;;;16.01;100.00;98796.00;4809084;29;20054;-95
2023/08/05 02:46:51;;;;;;;0.03;0.03;;;;;;;16.28;100.00;98836.50;4808977;29;20107;-95
2023/08/05 02:49:16;;;;;;;1.10;0.47;;;;;;;16.32;100.00;98837.00;4806973;29;20043;-95
2023/08/05 02:51:42;;;;;;;0.15;0.15;;;;;;;16.32;100.00;98842.63;4807553;29;20049;-95
2023/08/05 02:54:08;;;;;;;0.40;0.35;;;;;;;16.39;100.00;98847.72;4792861;29;20128;-95
2023/08/05 02:56:34;;;;;;;0.43;0.43;;;;;;;16.36;100.00;98868.31;4805953;29;20416;-95
2023/08/05 02:58:59;;;;;;;0.28;0.28;;;;;;;16.37;100.00;98899.88;4806334;29;20070;-95
2023/08/05 03:01:25;;;;;;;0.30;0.30;;;;;;;16.33;100.00;98894.53;4825921;29;20077;-93
2023/08/05 03:03:51;;;;;;;0.43;0.43;;;;;;;16.33;100.00;98914.88;4806903;29;20042;-94
2023/08/05 03:06:16;;;;;;;0.20;0.20;;;;;;;16.44;100.00;98967.31;4829026;29;20475;-95
2023/08/05 03:11:20;;;;;;;0.32;0.32;;;;;;;16.52;100.00;99009.59;4803427;29;20086;-94
2023/08/05 03:13:46;;;;;;;0.38;0.38;;;;;;;16.51;100.00;99006.03;4775719;29;21420;-95
2023/08/05 03:16:13;;;;;;;0.25;0.25;;;;;;;16.47;100.00;98971.13;4763539;29;20051;-92
2023/08/05 03:18:50;;;;;;;0.80;0.80;;;;;;;16.42;100.00;98930.66;4761078;29;20049;-93
2023/08/05 03:21:15;;;;;;;0.20;0.20;;;;;;;16.39;100.00;98914.88;4769044;29;20042;-95
2023/08/05 03:23:41;;;;;;;0.17;0.17;;;;;;;16.33;100.00;98928.09;4782640;29;20035;-93
2023/08/05 03:26:08;;;;;;;0.28;0.28;;;;;;;16.35;100.00;98917.16;4762805;29;20134;-96
2023/08/05 03:28:35;;;;;;;0.55;0.40;;;;;;;16.34;100.00;98919.19;4764622;29;20057;-96
2023/08/05 03:31:02;;;;;;;0.10;0.10;;;;;;;16.35;100.00;98917.16;4781675;29;20464;-93
2023/08/05 03:33:30;;;;;;;0.20;0.20;;;;;;;16.34;100.00;98919.19;4787003;29;20045;-95
2023/08/05 03:35:56;;;;;;;0.30;0.30;;;;;;;16.32;100.00;98910.53;4781045;29;20050;-95
2023/08/05 03:38:25;;;;;;;0.40;0.40;;;;;;;16.19;100.00;98889.88;4782038;29;20350;-94
2023/08/05 03:40:51;;;;;;;0.93;0.30;;;;;;;16.31;100.00;98913.84;4768228;29;20479;-92
2023/08/05 03:43:16;;;;;;;1.13;0.80;;;;;;;16.28;100.00;98898.06;4780912;29;20051;-93
2023/08/05 03:45:49;;;;;;;0.03;0.03;;;;;;;16.25;100.00;98879.47;4777215;29;20126;-95
2023/08/05 03:48:15;;;;;;;0.40;0.40;;;;;;;16.14;100.00;98838.22;4773347;29;20054;-94
2023/08/05 03:50:41;;;;;;;0.32;0.32;;;;;;;16.22;100.00;98864.44;4781096;29;20038;-93
2023/08/05 03:53:06;;;;;;;0.15;0.15;;;;;;;16.21;100.00;98888.13;4778637;29;20103;-93
2023/08/05 03:55:32;;;;;;;0.50;0.50;;;;;;;16.17;100.00;98887.59;4779812;29;20051;-92
2023/08/05 03:57:58;;;;;;;0.10;0.10;;;;;;;16.21;100.00;98898.53;4790348;29;20102;-93
2023/08/05 04:00:23;;;;;;;0.30;0.28;;;;;;;16.20;100.00;98902.59;4782114;29;20069;-93
2023/08/05 04:02:49;;;;;;;0.50;0.50;;;;;;;16.21;100.00;98887.34;4766099;29;20045;-94
2023/08/05 04:05:15;;;;;;;0.00;0.00;;;;;;;16.19;100.00;98878.69;4769511;29;20058;-94
2023/08/05 04:07:42;;;;;;;0.10;0.10;;;;;;;16.15;100.00;98870.53;4774138;30;20043;-94
2023/08/05 04:10:08;;;;;;;0.55;0.40;;;;;;;16.08;100.00;98847.88;4776418;29;20111;-94
2023/08/05 04:12:35;;;;;;;0.20;0.20;;;;;;;16.12;100.00;98823.22;4779391;29;20127;-95
2023/08/05 04:15:02;;;;;;;0.75;0.43;;;;;;;16.10;100.00;98803.38;4769130;29;20050;-94
2023/08/05 04:17:30;;;;;;;0.43;0.28;;;;;;;16.01;100.00;98828.78;4775543;30;20072;-93
2023/08/05 04:19:56;;;;;;;0.52;0.52;;;;;;;16.07;100.00;98871.53;4774908;29;20046;-93
2023/08/05 04:22:24;;;;;;;0.10;0.10;;;;;;;15.99;100.00;98853.69;4786643;29;20534;-95
2023/08/05 04:24:51;;;;;;;0.30;0.30;;;;;;;16.01;100.00;98851.16;4770726;29;20066;-94
2023/08/05 04:27:17;;;;;;;0.10;0.10;;;;;;;16.03;100.00;98854.22;4783544;29;20310;-93
2023/08/05 04:54:16;;;;;;;0.10;0.10;;;;;;;15.98;100.00;98868.94;1348714;27;20128;-91
2023/08/05 04:56:42;;;;;;;0.00;0.00;;;;;;;15.69;100.00;98808.59;4823548;29;20140;-92
2023/08/05 04:59:10;;;;;;;0.17;0.17;;;;;;;15.83;100.00;98825.16;4811486;29;20116;-91
2023/08/05 05:01:36;;;;;;;1.13;0.40;;;;;;;16.01;100.00;98845.56;4806918;29;20045;-91
2023/08/05 05:04:02;;;;;;;0.20;0.20;;;;;;;16.03;100.00;98829.03;4823380;29;20385;-92
2023/08/05 05:06:28;;;;;;;0.50;0.50;;;;;;;15.81;100.00;98780.13;4823422;29;20117;-93
2023/08/05 05:19:54;;;;;;;0.73;0.50;;;;;;;15.99;100.00;98792.91;4877836;29;20053;-95
2023/08/05 05:22:20;;;;;;;0.25;0.25;;;;;;;16.09;100.00;98793.47;4853957;29;20082;-95
2023/08/05 05:27:21;;;;;;;0.75;0.45;;;;;;;16.12;100.00;98778.47;4870230;29;20068;-95
2023/08/05 05:29:47;;;;;;;3.90;1.27;;;;;;;16.17;100.00;98769.34;4871767;29;20045;-95
2023/08/05 05:32:13;;;;;;;1.02;0.88;;;;;;;16.15;100.00;98757.88;4837483;29;20064;-92
2023/08/05 05:34:39;;;;;;;0.28;0.28;;;;;;;16.21;100.00;98778.25;4846689;29;20053;-93
2023/08/05 05:37:04;;;;;;;0.10;0.10;;;;;;;16.28;100.00;98781.31;4837297;29;20524;-94
2023/08/05 05:39:30;;;;;;;0.30;0.30;;;;;;;16.13;100.00;98749.22;4861466;29;20033;-93
2023/08/05 05:41:56;;;;;;;0.22;0.22;;;;;;;16.20;100.00;98746.69;4854540;29;20056;-95
2023/08/05 05:44:22;;;;;;;0.38;0.13;;;;;;;16.43;100.00;98758.66;4843682;29;20128;-94
2023/08/05 05:46:48;;;;;;;0.52;0.52;;;;;;;16.49;100.00;98764.28;4839309;29;20045;-92
2023/08/05 05:49:18;;;;;;;0.08;0.08;;;;;;;16.47;100.00;98758.41;4841667;29;20048;-95
2023/08/05 05:51:46;;;;;;;0.20;0.20;;;;;;;16.52;100.00;98780.81;4844106;29;20137;-96
2023/08/05 05:54:12;;;;;;;0.30;0.30;;;;;;;16.49;100.00;98776.25;4828924;29;20470;-94
2023/08/05 05:56:38;;;;;;;0.95;0.93;;;;;;;16.57;100.00;98794.09;4846652;29;20038;-96
2023/08/05 05:59:04;;;;;;;2.03;1.75;;;;;;;16.42;100.00;98768.31;4840775;29;20053;-93
2023/08/05 06:01:30;;;;;;;0.10;0.10;;;;;;;16.54;100.00;98781.06;4842674;29;20061;-95
2023/08/05 06:03:55;;;;;;;0.50;0.50;;;;;;;16.34;100.00;98745.69;4843116;29;20045;-95
2023/08/05 06:06:21;;;;;;;0.90;0.60;;;;;;;16.25;100.00;98731.19;4828079;29;20081;-94
2023/08/05 06:08:47;;;;;;;0.15;0.15;;;;;;;16.26;100.00;98733.47;4840116;29;20041;-94
2023/08/05 06:11:13;;;;;;;0.17;0.17;;;;;;;16.52;100.00;98774.47;4839054;29;20034;-94
2023/08/05 06:13:39;;;;;;;0.47;0.47;;;;;;;16.69;100.00;98798.44;4830604;29;20482;-95
2023/08/05 06:16:05;;;;;;;0.50;0.50;;;;;;;16.75;100.00;98790.78;4827877;29;20068;-93
2023/08/05 06:18:30;;;;;;;0.20;0.13;;;;;;;16.78;100.00;98795.34;4817948;29;20065;-95
2023/08/05 06:20:56;;;;;;;0.28;0.28;;;;;;;16.84;100.00;98792.56;4847458;29;20090;-95
2023/08/05 06:23:22;;;;;;;0.43;0.35;;;;;;;16.92;100.00;98787.97;4833216;29;20068;-93
2023/08/05 06:25:47;;;;;;;0.75;0.43;;;;;;;17.02;100.00;98802.50;4831699;29;20054;-95
2023/08/05 06:28:13;;;;;;;0.10;0.10;;;;;;;17.04;100.00;98805.53;4808154;29;20106;-94
2023/08/05 06:30:43;;;;;;;0.20;0.20;;;;;;;17.05;100.00;98807.84;4824230;29;20050;-94
2023/08/05 06:33:09;;;;;;;0.73;0.40;;;;;;;17.10;100.00;98831.53;4839846;29;20167;-94
2023/08/05 06:35:41;;;;;;;0.25;0.25;;;;;;;16.75;100.00;98785.19;4835634;29;20048;-96
2023/08/05 06:38:08;;;;;;;0.10;0.10;;;;;;;16.97;100.00;98822.88;4849974;29;20045;-93
2023/08/05 06:40:34;;;;;;;0.32;0.32;;;;;;;16.84;100.00;98825.41;4820512;29;20046;-95
2023/08/05 06:43:09;;;;;;;0.10;0.10;;;;;;;16.88;100.00;98821.06;4815505;29;20055;-95
2023/08/05 06:45:36;;;;;;;0.05;0.05;;;;;;;17.04;100.00;98855.97;4843454;29;20109;-95
2023/08/05 07:44:23;;;;;;;0.93;0.85;;;;;;;17.28;100.00;98875.81;4860001;29;20057;-93
2023/08/05 07:46:52;;;;;;;0.65;0.65;;;;;;;17.25;100.00;98874.03;4831047;29;20045;-94
2023/08/05 07:49:17;;;;;;;0.70;0.55;;;;;;;17.21;100.00;98873.53;4829984;29;20053;-93
2023/08/05 07:51:46;;;;;;;0.50;0.50;;;;;;;17.16;100.00;98863.09;4845194;29;20025;-93
2023/08/05 07:54:13;;;;;;;1.35;0.60;;;;;;;17.21;100.00;98870.75;4815179;29;20516;-94
2023/08/05 07:56:40;;;;;;;1.08;0.75;;;;;;;17.16;100.00;98877.09;4815591;29;20514;-93
2023/08/05 07:59:06;;;;;;;0.50;0.50;;;;;;;17.17;100.00;98873.03;4810530;29;20474;-93
2023/08/05 08:01:33;;;;;;;0.47;0.43;;;;;;;17.26;100.00;98875.59;4840230;29;20037;-93
2023/08/05 08:04:03;;;;;;;2.17;1.02;;;;;;;17.25;100.00;98855.19;4815451;29;20045;-91
2023/08/05 08:06:29;;;;;;;0.60;0.60;;;;;;;16.93;100.00;98797.16;4818227;29;20069;-94
2023/08/05 08:08:54;;;;;;;0.50;0.50;;;;;;;17.30;100.00;98834.06;4821748;29;20050;-95
2023/08/05 08:11:20;;;;;;;1.38;0.95;;;;;;;17.30;100.00;98844.50;4827576;29;20107;-90
2023/08/05 08:13:46;;;;;;;0.63;0.63;;;;;;;17.20;100.00;98824.38;4828519;29;20563;-87
2023/08/05 08:16:13;;;;;;;1.27;1.17;;;;;;;17.35;100.00;98836.06;4815831;29;20106;-89
2023/08/05 08:18:41;;;;;;;1.17;0.93;;;;;;;17.27;100.00;98820.31;4828644;29;20113;-90
2023/08/05 08:21:07;;;;;;;0.80;0.65;;;;;;;17.58;100.00;98859.25;4830789;29;20121;-90
2023/08/05 08:23:33;;;;;;;0.52;0.52;;;;;;;17.56;100.00;98851.31;4827505;29;20038;-89
2023/08/05 08:25:59;;;;;;;1.88;1.40;;;;;;;17.74;100.00;98850.03;4812387;29;20473;-90
2023/08/05 08:28:25;;;;;;;0.65;0.65;;;;;;;17.76;100.00;98852.31;4833837;29;20038;-93
2023/08/05 08:30:55;;;;;;;1.25;1.15;;;;;;;17.79;100.00;98859.72;4825829;29;20049;-94
2023/08/05 08:33:22;;;;;;;0.70;0.70;;;;;;;17.70;100.00;98861.53;4826651;29;20400;-94
2023/08/05 08:35:48;;;;;;;1.35;0.57;;;;;;;17.48;100.00;98841.91;4825950;29;20048;-93
2023/08/05 08:38:15;;;;;;;0.32;0.30;;;;;;;17.68;100.00;98878.09;4825492;29;20057;-93
2023/08/05 08:40:48;;;;;;;0.57;0.57;;;;;;;17.80;100.00;98883.66;4828115;29;20128;-93
2023/08/05 08:43:17;;;;;;;0.77;0.77;;;;;;;17.74;100.00;98880.13;4827022;29;20609;-94
2023/08/05 08:45:43;;;;;;;0.63;0.63;;;;;;;17.89;100.00;98889.00;4827699;29;20159;-93
2023/08/05 08:48:09;;;;;;;0.60;0.52;;;;;;;17.87;100.00;98880.34;4828083;29;20500;-93
2023/08/05 08:50:36;;;;;;;0.85;0.85;;;;;;;17.87;100.00;98858.66;4827716;29;20046;-94
2023/08/05 08:53:01;;;;;;;0.75;0.75;;;;;;;18.02;100.00;98855.53;4828050;29;20041;-94
2023/08/05 08:55:27;;;;;;;1.08;0.80;;;;;;;17.99;100.00;98836.94;4827931;29;20049;-93
2023/08/05 08:57:53;;;;;;;0.55;0.50;;;;;;;18.03;100.00;98815.00;4832040;29;20060;-96
2023/08/05 09:00:18;;;;;;;0.52;0.52;;;;;;;18.41;100.00;98856.09;4819654;29;20049;-95
2023/08/05 09:02:44;;;;;;;0.68;0.68;;;;;;;18.40;100.00;98834.19;4841746;29;20054;-96
2023/08/05 09:05:10;;;;;;;2.72;0.65;;;;;;;18.52;100.00;98827.97;4835684;29;20053;-95
2023/08/05 09:07:36;;;;;;;1.33;1.23;;;;;;;18.43;100.00;98807.88;4830954;29;20523;-95
2023/08/05 09:10:06;;;;;;;0.63;0.63;;;;;;;18.29;100.00;98798.50;4826633;29;20049;-95
2023/08/05 09:12:36;;;;;;;0.70;0.70;;;;;;;18.51;100.00;98815.22;4840995;29;20046;-95
2023/08/05 09:15:01;;;;;;;0.30;0.28;;;;;;;18.43;100.00;98791.03;4827652;29;20081;-95
2023/08/05 09:17:37;;;;;;;1.05;0.95;;;;;;;18.51;100.00;98803.22;4857499;29;20181;-95
2023/08/05 09:20:13;;;;;;;0.38;0.38;;;;;;;18.82;100.00;98846.94;4843015;29;20049;-96
2023/08/05 09:22:53;;;;;;;1.08;0.98;;;;;;;18.53;100.00;98800.66;4844262;29;20041;-95
2023/08/05 09:25:19;;;;;;;1.05;0.95;;;;;;;18.66;100.00;98809.25;4856827;29;20057;-93
2023/08/05 09:27:48;;;;;;;0.77;0.60;;;;;;;18.66;100.00;98808.50;4846159;29;20089;-94
2023/08/05 09:30:17;;;;;;;0.73;0.73;;;;;;;18.70;100.00;98820.97;4868873;29;20069;-95
2023/08/05 09:32:46;;;;;;;0.82;0.30;;;;;;;18.78;100.00;98838.03;4846258;29;20052;-96
2023/08/05 09:35:13;;;;;;;0.52;0.52;;;;;;;18.84;100.00;98852.81;4848379;29;20038;-94
2023/08/05 09:37:57;;;;;;;1.27;1.02;;;;;;;18.69;100.00;98825.06;4833296;29;20416;-95
2023/08/05 09:40:28;;;;;;;0.65;0.57;;;;;;;19.01;100.00;98871.06;4830367;29;20052;-95
2023/08/05 11:54:33;;;;;;;1.02;0.95;;;;;;;19.25;100.00;98847.13;4877459;29;20045;-95
2023/08/05 14:20:41;;;;;;;0.28;0.20;;;;;;;19.07;100.00;98882.25;4875807;29;20053;-92
2023/08/05 14:23:07;;;;;;;0.70;0.40;;;;;;;19.10;100.00;98875.59;4827924;29;20053;-93
2023/08/05 14:25:33;;;;;;;1.17;1.08;;;;;;;18.99;100.00;98847.56;4834377;29;20140;-90
2023/08/05 14:27:59;;;;;;;0.10;0.10;;;;;;;18.87;100.00;98818.03;4829432;29;20487;-92
2023/08/05 14:30:25;;;;;;;0.30;0.30;;;;;;;19.15;100.00;98845.91;4835761;29;20048;-92
2023/08/05 14:32:52;;;;;;;0.25;0.25;;;;;;;19.15;100.00;98834.66;4837703;29;20097;-89
2023/08/05 14:35:20;;;;;;;0.25;0.20;;;;;;;19.15;100.00;98849.50;4830720;29;20042;-89
2023/08/05 14:37:46;;;;;;;0.08;0.08;;;;;;;19.20;100.00;98851.50;4839066;29;20670;-90
2023/08/05 14:40:11;;;;;;;0.73;0.43;;;;;;;19.00;100.00;98832.25;4829879;29;20123;-91
2023/08/05 14:42:37;;;;;;;0.30;0.20;;;;;;;18.95;100.00;98861.16;4843703;29;20187;-90
2023/08/05 14:45:03;;;;;;;0.65;0.65;;;;;;;19.04;100.00;98877.69;4827354;29;20045;-89
2023/08/05 14:47:28;;;;;;;0.10;0.10;;;;;;;19.09;100.00;98885.28;4830718;29;20412;-90
2023/08/05 14:49:54;;;;;;;0.08;0.08;;;;;;;19.08;100.00;98878.16;4838074;29;20053;-90
2023/08/05 14:52:20;;;;;;;0.32;0.32;;;;;;;19.03;100.00;98887.41;4814923;29;20090;-90
2023/08/05 14:54:46;;;;;;;0.00;0.00;;;;;;;18.95;100.00;98872.38;4837617;29;20183;-91
2023/08/05 14:57:14;;;;;;;0.30;0.30;;;;;;;18.89;100.00;98871.66;4844433;29;20064;-90
2023/08/05 14:59:39;;;;;;;0.10;0.10;;;;;;;18.94;100.00;98896.16;4823263;29;20486;-89
2023/08/05 15:02:06;;;;;;;10.40;0.30;;;;;;;18.96;100.00;98883.13;4823864;29;20040;-90
2023/08/05 15:04:33;;;;;;;0.10;0.10;;;;;;;18.97;100.00;98867.00;4819514;29;20141;-91
2023/08/05 15:06:58;;;;;;;0.28;0.15;;;;;;;18.79;100.00;98822.72;4850522;29;20041;-90
2023/08/05 15:09:24;;;;;;;0.00;0.00;;;;;;;18.86;100.00;98816.50;4827736;29;20559;-90
2023/08/05 15:11:49;;;;;;;0.00;0.00;;;;;;;18.93;100.00;98844.81;4828283;29;20102;-91
2023/08/05 15:14:15;;;;;;;0.35;0.35;;;;;;;18.73;100.00;98808.69;4815602;29;20551;-90
2023/08/05 15:16:40;;;;;;;0.00;0.00;;;;;;;18.75;100.00;98816.59;4853849;29;20049;-90
2023/08/05 15:19:09;;;;;;;0.20;0.20;;;;;;;18.76;100.00;98824.53;4837436;29;20088;-90
2023/08/05 15:21:34;;;;;;;0.60;0.47;;;;;;;18.66;100.00;98820.50;4861111;29;20108;-91
2023/08/05 15:24:00;;;;;;;0.75;0.75;;;;;;;18.80;100.00;98843.91;4860056;29;20049;-90
2023/08/05 15:26:26;;;;;;;0.17;0.17;;;;;;;18.78;100.00;98833.19;4859314;29;20045;-91
2023/08/05 15:28:51;;;;;;;0.00;0.00;;;;;;;18.67;100.00;98815.66;4875367;29;20037;-90
2023/08/05 15:31:20;;;;;;;0.38;0.38;;;;;;;18.69;100.00;98813.06;4860378;29;20511;-89
2023/08/05 15:33:46;;;;;;;0.00;0.00;;;;;;;18.86;100.00;98831.31;4833481;29;20128;-90
2023/08/05 15:36:17;;;;;;;0.15;0.10;;;;;;;18.75;100.00;98830.66;4843352;29;20145;-89
2023/08/05 15:38:43;;;;;;;0.10;0.10;;;;;;;18.68;100.00;98839.66;4881597;29;20073;-92
2023/08/05 15:41:09;;;;;;;0.00;0.00;;;;;;;18.51;100.00;98809.59;4874956;29;20503;-92
2023/08/05 15:43:34;;;;;;;0.00;0.00;;;;;;;18.83;100.00;98846.44;4868364;29;20039;-91
2023/08/05 15:46:09;;;;;;;0.13;0.13;;;;;;;18.80;100.00;98841.09;4846101;29;20076;-91
2023/08/05 15:48:35;;;;;;;0.00;0.00;;;;;;;18.75;100.00;98811.00;4850840;29;20140;-91
2023/08/05 15:51:02;;;;;;;0.28;0.17;;;;;;;18.69;100.00;98796.22;4842858;29;20045;-91
2023/08/05 15:53:29;;;;;;;0.00;0.00;;;;;;;18.74;100.00;98790.56;4849893;29;20047;-91
2023/08/05 15:56:00;;;;;;;0.00;0.00;;;;;;;18.63;100.00;98765.38;4870407;29;20400;-91
2023/08/05 15:58:25;;;;;;;0.10;0.10;;;;;;;18.67;100.00;98771.47;4871096;29;20057;-91
2023/08/05 16:01:01;;;;;;;0.45;0.10;;;;;;;18.69;100.00;98782.94;4887543;29;20049;-91
2023/08/05 16:03:27;;;;;;;0.35;0.15;;;;;;;18.43;100.00;98758.09;4875715;29;20477;-91
2023/08/05 16:06:05;;;;;;;0.00;0.00;;;;;;;18.67;100.00;98798.78;4876094;29;20048;-90
2023/08/05 16:08:31;;;;;;;0.10;0.10;;;;;;;18.33;100.00;98742.84;4875956;29;20101;-91
2023/08/05 16:11:02;;;;;;;0.00;0.00;;;;;;;18.45;100.00;98772.38;4868002;29;20053;-91
2023/08/05 16:13:38;;;;;;;5.50;0.82;;;;;;;18.55;100.00;98807.31;4847080;29;20044;-91
2023/08/05 16:16:10;;;;;;;0.10;0.10;;;;;;;18.58;100.00;98809.06;4864915;29;20141;-92
2023/08/05 16:18:37;;;;;;;0.30;0.20;;;;;;;18.57;100.00;98809.56;4854800;29;20053;-91
2023/08/05 16:21:21;;;;;;;0.55;0.38;;;;;;;18.49;100.00;98789.69;4820417;29;20125;-93
2023/08/05 16:23:53;;;;;;;0.00;0.00;;;;;;;18.37;100.00;98770.63;4825563;29;20041;-90
2023/08/05 16:26:21;;;;;;;0.00;0.00;;;;;;;18.27;100.00;98758.97;4841537;29;20058;-92
2023/08/05 16:28:47;;;;;;;0.00;0.00;;;;;;;18.28;100.00;98762.56;4843253;29;20037;-92
2023/08/05 16:31:14;;;;;;;0.00;0.00;;;;;;;18.43;100.00;98785.41;4838983;29;20048;-91
2023/08/05 16:33:40;;;;;;;0.00;0.00;;;;;;;18.31;100.00;98781.91;4842407;29;20121;-93
2023/08/05 16:36:08;;;;;;;0.00;0.00;;;;;;;18.13;100.00;98752.41;4819455;29;20057;-92
2023/08/05 16:38:34;;;;;;;0.10;0.10;;;;;;;18.21;100.00;98775.06;4835345;29;20041;-92
2023/08/05 16:41:01;;;;;;;0.43;0.20;;;;;;;18.20;100.00;98773.53;4835619;29;20053;-92
2023/08/05 16:43:28;;;;;;;0.00;0.00;;;;;;;18.27;100.00;98784.25;4808810;29;20057;-92
2023/08/05 16:45:54;;;;;;;0.00;0.00;;;;;;;18.04;100.00;98749.91;4840716;29;20136;-91
2023/08/05 16:48:20;;;;;;;0.28;0.28;;;;;;;18.00;100.00;98743.06;4825638;29;20579;-91
2023/08/05 16:50:46;;;;;;;0.10;0.10;;;;;;;17.95;100.00;98761.47;4843247;29;20050;-92
2023/08/05 16:53:12;;;;;;;0.15;0.15;;;;;;;17.98;100.00;98784.91;4823387;29;20112;-90
2023/08/05 16:55:39;;;;;;;0.40;0.35;;;;;;;18.05;100.00;98801.94;4835429;29;20160;-90
2023/08/05 16:58:05;;;;;;;0.00;0.00;;;;;;;18.01;100.00;98797.91;4845764;29;20042;-93
2023/08/05 17:00:32;;;;;;;0.28;0.28;;;;;;;18.08;100.00;98809.34;4844875;29;20044;-90
2023/08/05 17:02:58;;;;;;;0.00;0.00;;;;;;;18.10;100.00;98826.44;4845894;29;20058;-91
2023/08/05 17:05:24;;;;;;;0.25;0.10;;;;;;;17.93;100.00;98800.47;4827071;29;20606;-92
2023/08/05 17:07:54;;;;;;;0.13;0.13;;;;;;;17.95;100.00;98791.56;4826551;29;20097;-91
2023/08/05 17:10:20;;;;;;;0.08;0.08;;;;;;;18.09;100.00;98801.69;4835378;29;20105;-90
2023/08/05 17:12:47;;;;;;;0.17;0.10;;;;;;;18.13;100.00;98804.97;4828896;29;20764;-91
2023/08/05 17:15:14;;;;;;;0.22;0.22;;;;;;;18.06;100.00;98802.72;4831394;29;20054;-92
2023/08/05 17:17:40;;;;;;;0.10;0.10;;;;;;;18.09;100.00;98805.25;4842205;29;20049;-91
2023/08/05 17:20:06;;;;;;;0.03;0.03;;;;;;;17.93;100.00;98771.66;4832059;29;20523;-90
2023/08/05 17:22:32;;;;;;;0.00;0.00;;;;;;;17.96;100.00;98770.63;4834779;29;20442;-91
2023/08/05 17:24:59;;;;;;;0.13;0.13;;;;;;;17.94;100.00;98776.00;4838788;29;20508;-91
2023/08/05 17:27:25;;;;;;;0.00;0.00;;;;;;;18.03;100.00;98792.53;4835961;29;20041;-91
2023/08/05 17:29:52;;;;;;;0.15;0.15;;;;;;;18.06;100.00;98797.09;4820997;29;20270;-92
2023/08/05 17:32:17;;;;;;;0.38;0.22;;;;;;;17.91;100.00;98772.19;4820516;29;20312;-90
2023/08/05 17:34:44;;;;;;;0.00;0.00;;;;;;;17.96;100.00;98782.59;4815382;29;20534;-90
2023/08/05 17:37:11;;;;;;;0.00;0.00;;;;;;;18.03;100.00;98803.75;4830767;29;20102;-91
2023/08/05 17:39:37;;;;;;;0.20;0.20;;;;;;;17.94;100.00;98778.81;4836014;29;20120;-89